createdAt,value
2022-11-28T00:01:27.395Z,6.50
2022-11-28T00:03:54.646Z,6.55
2022-11-28T00:06:22.396Z,6.62
2022-11-28T00:08:49.485Z,6.74
2022-11-28T00:11:16.886Z,6.60
2022-11-28T00:13:44.553Z,6.60
2022-11-28T00:16:17.238Z,6.65
2022-11-28T00:18:44.765Z,6.65
2022-11-28T00:21:13.446Z,6.69
2022-11-28T00:23:41.776Z,6.64
2022-11-28T00:26:15.531Z,6.61
2022-11-28T00:28:42.720Z,6.70
2022-11-28T00:31:18.786Z,6.54
2022-11-28T00:33:45.706Z,6.52
2022-11-28T00:36:13.424Z,6.61
2022-11-28T00:38:40.842Z,6.54
2022-11-28T00:41:11.116Z,6.56
2022-11-28T00:43:38.207Z,6.61
2022-11-28T00:46:05.258Z,6.60
2022-11-28T00:48:33.792Z,6.51
2022-11-28T00:51:16.375Z,6.56
2022-11-28T00:53:45.262Z,6.38
2022-11-28T00:56:13.510Z,6.55
2022-11-28T00:58:41.260Z,6.54
2022-11-28T01:01:13.405Z,6.50
2022-11-28T01:03:40.213Z,6.53
2022-11-28T01:06:08.075Z,6.52
2022-11-28T01:08:35.177Z,6.37
2022-11-28T01:11:02.776Z,6.40
2022-11-28T01:13:29.592Z,6.42
2022-11-28T01:15:58.849Z,6.46
2022-11-28T01:18:25.839Z,6.41
2022-11-28T01:20:52.790Z,6.33
2022-11-28T01:23:19.701Z,6.29
2022-11-28T01:25:46.637Z,6.17
2022-11-28T01:28:13.492Z,6.25
2022-11-28T01:30:40.629Z,6.30
2022-11-28T01:33:07.520Z,6.42
2022-11-28T01:35:34.727Z,6.34
2022-11-28T01:38:01.547Z,6.27
2022-11-28T01:40:28.413Z,6.30
2022-11-28T01:42:55.323Z,6.18
2022-11-28T01:45:25.792Z,6.30
2022-11-28T01:47:56.512Z,6.41
2022-11-28T01:50:24.712Z,6.43
2022-11-28T01:53:00.215Z,6.19
2022-11-28T01:55:31.455Z,6.02
2022-11-28T01:57:58.535Z,6.14
2022-11-28T02:00:25.630Z,6.13
2022-11-28T02:03:03.586Z,6.07
2022-11-28T02:05:30.497Z,6.16
2022-11-28T02:07:57.522Z,6.26
2022-11-28T02:10:37.436Z,6.18
2022-11-28T02:13:07.245Z,6.22
2022-11-28T02:16:06.787Z,6.14
2022-11-28T02:19:00.770Z,6.28
2022-11-28T02:21:48.825Z,6.23
2022-11-28T02:24:24.835Z,6.37
2022-11-28T02:27:17.040Z,6.40
2022-11-28T02:29:56.001Z,6.50
2022-11-28T02:32:44.204Z,6.43
2022-11-28T02:35:21.058Z,6.42
2022-11-28T02:38:07.213Z,6.45
2022-11-28T02:40:58.922Z,6.55
2022-11-28T02:44:03.819Z,6.67
2022-11-28T02:46:43.343Z,6.60
2022-11-28T02:49:26.683Z,6.41
2022-11-28T02:52:00.072Z,6.46
2022-11-28T02:54:28.052Z,6.44
2022-11-28T02:56:55.442Z,6.45
2022-11-28T02:59:38.829Z,6.38
2022-11-28T03:02:15.905Z,6.21
2022-11-28T03:04:59.571Z,6.38
2022-11-28T03:07:49.631Z,6.48
2022-11-28T03:10:40.380Z,6.49
2022-11-28T03:13:15.110Z,6.54
2022-11-28T03:16:06.372Z,6.46
2022-11-28T03:18:41.761Z,6.53
2022-11-28T03:21:46.853Z,6.41
2022-11-28T03:24:30.581Z,6.38
2022-11-28T03:27:24.856Z,6.28
2022-11-28T03:30:00.802Z,6.38
2022-11-28T03:32:36.483Z,6.56
2022-11-28T03:35:11.879Z,6.42
2022-11-28T03:37:47.860Z,6.51
2022-11-28T03:40:20.489Z,6.52
2022-11-28T03:42:58.980Z,6.46
2022-11-28T03:45:31.825Z,6.44
2022-11-28T03:48:05.405Z,6.44
2022-11-28T03:50:45.812Z,6.39
2022-11-28T03:53:20.308Z,6.30
2022-11-28T03:56:17.748Z,6.36
2022-11-28T03:59:13.545Z,6.26
2022-11-28T04:02:03.488Z,6.17
2022-11-28T04:04:42.833Z,6.21
2022-11-28T04:07:37.263Z,6.32
2022-11-28T04:10:10.107Z,6.31
2022-11-28T04:13:18.882Z,6.46
2022-11-28T04:15:59.577Z,6.42
2022-11-28T04:18:42.227Z,6.42
2022-11-28T04:21:20.352Z,6.61
2022-11-28T04:23:49.641Z,6.56
2022-11-28T04:26:34.721Z,6.52
2022-11-28T04:29:07.750Z,6.49
2022-11-28T04:31:37.058Z,6.58
2022-11-28T04:34:11.406Z,6.58
2022-11-28T04:36:41.151Z,6.71
2022-11-28T04:39:14.475Z,6.65
2022-11-28T04:42:06.655Z,6.62
2022-11-28T04:44:33.490Z,6.57
2022-11-28T04:47:00.585Z,6.41
2022-11-28T04:49:30.189Z,6.53
2022-11-28T04:52:08.552Z,6.45
2022-11-28T04:54:54.245Z,6.44
2022-11-28T04:57:30.236Z,6.43
2022-11-28T04:59:58.307Z,6.46
2022-11-28T05:02:27.696Z,6.47
2022-11-28T05:04:55.989Z,6.42
2022-11-28T05:07:24.334Z,6.40
2022-11-28T05:09:51.629Z,6.45
2022-11-28T05:12:18.580Z,6.40
2022-11-28T05:14:45.456Z,6.30
2022-11-28T05:17:13.819Z,6.33
2022-11-28T05:19:40.827Z,6.47
2022-11-28T05:22:07.700Z,6.39
2022-11-28T05:24:34.570Z,6.50
2022-11-28T05:27:01.438Z,6.52
2022-11-28T05:29:28.365Z,6.54
2022-11-28T05:31:55.567Z,6.60
2022-11-28T05:34:22.622Z,6.61
2022-11-28T05:36:49.533Z,6.60
2022-11-28T05:39:16.521Z,6.47
2022-11-28T05:41:43.413Z,6.62
2022-11-28T05:44:10.602Z,6.50
2022-11-28T05:46:37.790Z,6.64
2022-11-28T05:49:04.714Z,6.67
2022-11-28T05:51:31.624Z,6.49
2022-11-28T05:53:58.451Z,6.51
2022-11-28T05:56:25.349Z,6.42
2022-11-28T05:58:54.258Z,6.38
2022-11-28T06:01:27.645Z,6.46
2022-11-28T06:04:00.086Z,6.58
2022-11-28T06:06:29.846Z,6.61
2022-11-28T06:08:57.556Z,6.75
2022-11-28T06:11:26.381Z,6.72
2022-11-28T06:13:53.692Z,6.81
2022-11-28T06:16:23.751Z,6.69
2022-11-28T06:19:01.848Z,6.64
2022-11-28T06:21:29.968Z,6.69
2022-11-28T06:23:58.757Z,6.73
2022-11-28T06:26:27.161Z,6.67
2022-11-28T06:28:55.698Z,6.77
2022-11-28T06:31:27.376Z,6.69
2022-11-28T06:33:54.412Z,6.65
2022-11-28T06:36:21.460Z,6.63
2022-11-28T06:38:48.622Z,6.69
2022-11-28T06:41:18.838Z,6.70
2022-11-28T06:43:45.749Z,6.75
2022-11-28T06:46:16.296Z,6.71
2022-11-28T06:48:44.565Z,6.75
2022-11-28T06:51:12.615Z,6.87
2022-11-28T06:53:40.254Z,6.81
2022-11-28T06:56:09.127Z,6.84
2022-11-28T06:58:36.461Z,6.75
2022-11-28T07:01:09.271Z,6.77
2022-11-28T07:03:36.896Z,6.87
2022-11-28T07:06:05.594Z,6.86
2022-11-28T07:08:33.496Z,6.82
2022-11-28T07:11:12.736Z,6.86
2022-11-28T07:13:41.024Z,6.91
2022-11-28T07:16:13.123Z,6.94
2022-11-28T07:18:40.022Z,7.06
2022-11-28T07:21:07.097Z,7.09
2022-11-28T07:23:33.909Z,7.12
2022-11-28T07:26:02.703Z,7.08
2022-11-28T07:28:31.302Z,7.00
2022-11-28T07:31:10.858Z,7.03
2022-11-28T07:33:42.445Z,6.92
2022-11-28T07:36:14.980Z,6.97
2022-11-28T07:38:41.928Z,6.85
2022-11-28T07:41:14.196Z,6.91
2022-11-28T07:43:42.986Z,6.83
2022-11-28T07:46:13.244Z,6.84
2022-11-28T07:48:40.237Z,6.83
2022-11-28T07:51:12.995Z,6.81
2022-11-28T07:53:40.647Z,6.85
2022-11-28T07:56:15.197Z,6.98
2022-11-28T07:58:44.518Z,6.90
2022-11-28T08:01:16.836Z,6.90
2022-11-28T08:03:46.976Z,6.92
2022-11-28T08:06:16.759Z,6.90
2022-11-28T08:08:45.593Z,6.93
2022-11-28T08:11:13.116Z,7.05
2022-11-28T08:13:40.533Z,7.13
2022-11-28T08:16:14.294Z,7.28
2022-11-28T08:18:41.416Z,7.37
2022-11-28T08:21:11.293Z,7.25
2022-11-28T08:23:39.404Z,7.26
2022-11-28T08:26:09.307Z,7.31
2022-11-28T08:28:36.786Z,7.26
2022-11-28T08:31:15.052Z,7.36
2022-11-28T08:33:42.322Z,7.30
2022-11-28T08:36:11.424Z,7.33
2022-11-28T08:38:38.978Z,7.33
2022-11-28T08:41:12.026Z,7.42
2022-11-28T08:43:39.490Z,7.49
2022-11-28T08:46:09.552Z,7.47
2022-11-28T08:48:37.971Z,7.55
2022-11-28T08:51:05.464Z,7.54
2022-11-28T08:53:32.793Z,7.59
2022-11-28T08:56:00.657Z,7.59
2022-11-28T08:58:27.654Z,7.48
2022-11-28T09:00:54.512Z,7.60
2022-11-28T09:03:21.487Z,7.65
2022-11-28T09:05:48.684Z,7.65
2022-11-28T09:08:17.443Z,7.82
2022-11-28T09:10:45.406Z,7.72
2022-11-28T09:13:13.516Z,7.80
2022-11-28T09:15:42.964Z,7.87
2022-11-28T09:18:10.167Z,8.17
2022-11-28T09:20:37.104Z,7.94
2022-11-28T09:23:04.078Z,7.83
2022-11-28T09:25:31.001Z,7.88
2022-11-28T09:27:57.946Z,7.88
2022-11-28T09:30:26.139Z,7.75
2022-11-28T09:32:53.022Z,7.83
2022-11-28T09:35:20.035Z,7.75
2022-11-28T09:37:47.307Z,7.78
2022-11-28T09:40:20.520Z,7.77
2022-11-28T09:42:47.718Z,7.79
2022-11-28T09:45:19.020Z,7.77
2022-11-28T09:47:51.814Z,7.68
2022-11-28T09:50:30.823Z,7.81
2022-11-28T09:53:15.997Z,7.75
2022-11-28T09:56:12.795Z,7.77
2022-11-28T09:58:43.465Z,7.72
2022-11-28T10:01:42.613Z,7.80
2022-11-28T10:04:16.625Z,7.74
2022-11-28T10:06:51.938Z,7.67
2022-11-28T10:09:41.058Z,7.67
2022-11-28T10:12:27.774Z,7.68
2022-11-28T10:15:21.852Z,7.65
2022-11-28T10:18:07.211Z,7.73
2022-11-28T10:20:44.180Z,7.69
2022-11-28T10:23:22.774Z,7.65
2022-11-28T10:25:59.642Z,7.69
2022-11-28T10:28:31.976Z,7.74
2022-11-28T10:31:04.820Z,7.70
2022-11-28T10:33:52.608Z,7.76
2022-11-28T10:36:30.595Z,7.75
2022-11-28T10:39:00.526Z,7.64
2022-11-28T10:41:36.601Z,7.71
2022-11-28T10:44:17.037Z,7.71
2022-11-28T10:46:54.835Z,7.82
2022-11-28T10:49:36.892Z,7.79
2022-11-28T10:52:15.512Z,7.77
2022-11-28T10:55:22.835Z,7.67
2022-11-28T10:58:01.039Z,7.78
2022-11-28T11:00:27.749Z,7.83
2022-11-28T11:02:57.107Z,7.93
2022-11-28T11:05:32.754Z,7.97
2022-11-28T11:08:19.239Z,7.85
2022-11-28T11:10:52.546Z,7.92
2022-11-28T11:13:26.774Z,7.93
2022-11-28T11:16:08.192Z,7.91
2022-11-28T11:18:57.615Z,7.93
2022-11-28T11:21:27.851Z,7.95
2022-11-28T11:24:17.056Z,7.90
2022-11-28T11:26:47.206Z,7.85
2022-11-28T11:29:30.078Z,7.80
2022-11-28T11:32:03.683Z,7.72
2022-11-28T11:34:43.322Z,7.60
2022-11-28T11:37:30.275Z,7.59
2022-11-28T11:39:57.317Z,7.60
2022-11-28T11:42:27.168Z,7.58
2022-11-28T11:44:54.683Z,7.62
2022-11-28T11:47:44.173Z,7.62
2022-11-28T11:50:20.712Z,7.62
2022-11-28T11:53:01.981Z,7.44
2022-11-28T11:55:30.945Z,7.49
2022-11-28T11:58:05.395Z,7.48
2022-11-28T12:00:39.207Z,7.52
2022-11-28T12:03:27.340Z,7.46
2022-11-28T12:06:14.172Z,7.44
2022-11-28T12:09:00.813Z,7.28
2022-11-28T12:11:30.246Z,7.46
2022-11-28T12:14:24.683Z,7.23
2022-11-28T12:16:56.018Z,7.28
2022-11-28T12:19:57.136Z,7.29
2022-11-28T12:22:40.083Z,7.12
2022-11-28T12:25:13.360Z,7.03
2022-11-28T12:28:34.072Z,6.99
2022-11-28T12:31:16.453Z,7.05
2022-11-28T12:33:46.882Z,6.77
2022-11-28T12:36:32.136Z,6.68
2022-11-28T12:39:19.229Z,6.77
2022-11-28T12:41:48.692Z,6.73
2022-11-28T12:44:40.452Z,6.72
2022-11-28T12:47:22.432Z,6.67
2022-11-28T12:50:13.950Z,6.66
2022-11-28T12:52:49.859Z,6.72
2022-11-28T12:55:23.095Z,6.67
2022-11-28T12:57:55.807Z,6.61
2022-11-28T13:00:25.547Z,6.49
2022-11-28T13:02:55.483Z,6.42
2022-11-28T13:05:38.648Z,6.34
2022-11-28T13:08:22.001Z,6.27
2022-11-28T13:10:58.024Z,6.25
2022-11-28T13:14:14.253Z,6.13
2022-11-28T13:16:51.028Z,6.17
2022-11-28T13:19:29.893Z,6.15
2022-11-28T13:22:24.605Z,5.96
2022-11-28T13:24:55.730Z,6.04
2022-11-28T13:27:34.068Z,6.12
2022-11-28T13:30:13.744Z,5.88
2022-11-28T13:32:51.173Z,5.93
2022-11-28T13:35:19.869Z,5.83
2022-11-28T13:38:48.332Z,5.89
2022-11-28T13:41:52.797Z,5.94
2022-11-28T13:44:25.939Z,5.90
2022-11-28T13:46:53.126Z,5.93
2022-11-28T13:49:24.373Z,5.97
2022-11-28T13:52:19.087Z,5.95
2022-11-28T13:54:53.389Z,5.90
2022-11-28T13:57:27.714Z,5.79
2022-11-28T14:00:06.400Z,5.84
2022-11-28T14:02:46.629Z,5.83
2022-11-28T14:05:31.950Z,5.93
2022-11-28T14:07:59.409Z,5.97
2022-11-28T14:10:29.009Z,5.81
2022-11-28T14:13:13.115Z,5.67
2022-11-28T14:15:46.602Z,5.65
2022-11-28T14:18:39.610Z,5.60
2022-11-28T14:21:22.427Z,5.67
2022-11-28T14:23:58.479Z,5.69
2022-11-28T14:26:37.380Z,5.80
2022-11-28T14:29:08.221Z,5.77
2022-11-28T14:31:39.147Z,5.76
2022-11-28T14:34:37.836Z,5.76
2022-11-28T14:37:20.345Z,5.69
2022-11-28T14:39:49.507Z,5.60
2022-11-28T14:42:36.967Z,5.64
2022-11-28T14:45:43.442Z,5.60
2022-11-28T14:48:19.879Z,5.44
2022-11-28T14:50:53.501Z,5.33
2022-11-28T14:53:36.378Z,5.43
2022-11-28T14:56:30.652Z,5.55
2022-11-28T14:59:01.769Z,5.35
2022-11-28T15:01:47.614Z,5.41
2022-11-28T15:04:32.653Z,5.40
2022-11-28T15:07:02.385Z,5.55
2022-11-28T15:09:42.730Z,5.60
2022-11-28T15:12:17.687Z,5.64
2022-11-28T15:14:52.052Z,5.56
2022-11-28T15:17:25.965Z,5.55
2022-11-28T15:19:53.435Z,5.62
2022-11-28T15:22:41.996Z,5.67
2022-11-28T15:25:24.931Z,5.84
2022-11-28T15:27:52.488Z,5.90
2022-11-28T15:30:23.960Z,5.91
2022-11-28T15:32:58.213Z,5.83
2022-11-28T15:35:26.341Z,5.76
2022-11-28T15:37:58.307Z,5.83
2022-11-28T15:40:32.623Z,5.84
2022-11-28T15:43:00.871Z,5.88
2022-11-28T15:45:35.471Z,5.76
2022-11-28T15:48:02.434Z,5.74
2022-11-28T15:50:31.971Z,5.81
2022-11-28T15:53:14.849Z,5.91
2022-11-28T15:55:42.778Z,5.75
2022-11-28T15:58:12.168Z,5.77
2022-11-28T16:00:44.208Z,5.76
2022-11-28T16:03:18.366Z,5.78
2022-11-28T16:05:47.823Z,5.78
2022-11-28T16:08:25.773Z,5.67
2022-11-28T16:10:52.922Z,5.48
2022-11-28T16:13:21.924Z,5.65
2022-11-28T16:15:50.587Z,5.58
2022-11-28T16:18:18.613Z,5.54
2022-11-28T16:20:46.504Z,5.31
2022-11-28T16:23:28.724Z,5.51
2022-11-28T16:26:22.068Z,5.73
2022-11-28T16:29:06.953Z,5.87
2022-11-28T16:31:35.110Z,5.97
2022-11-28T16:34:02.929Z,5.89
2022-11-28T16:36:31.145Z,6.00
2022-11-28T16:39:24.280Z,6.03
2022-11-28T16:42:07.621Z,5.77
2022-11-28T16:44:34.658Z,5.68
2022-11-28T16:47:02.127Z,5.53
2022-11-28T16:49:59.031Z,5.53
2022-11-28T16:52:25.788Z,5.66
2022-11-28T16:54:57.224Z,5.75
2022-11-28T16:57:30.178Z,5.92
2022-11-28T16:59:59.823Z,5.88
2022-11-28T17:02:27.060Z,5.66
2022-11-28T17:04:54.247Z,5.70
2022-11-28T17:07:23.324Z,5.52
2022-11-28T17:09:50.557Z,5.50
2022-11-28T17:12:29.485Z,5.62
2022-11-28T17:14:56.601Z,5.47
2022-11-28T17:17:24.215Z,5.58
2022-11-28T17:19:51.480Z,5.62
2022-11-28T17:22:26.920Z,5.66
2022-11-28T17:24:59.537Z,5.69
2022-11-28T17:27:26.484Z,5.68
2022-11-28T17:29:53.379Z,5.49
2022-11-28T17:32:21.323Z,5.64
2022-11-28T17:34:48.134Z,5.64
2022-11-28T17:37:15.113Z,5.64
2022-11-28T17:40:02.164Z,5.55
2022-11-28T17:42:29.008Z,5.47
2022-11-28T17:44:55.911Z,5.67
2022-11-28T17:47:23.987Z,5.52
2022-11-28T17:49:51.326Z,5.42
2022-11-28T17:52:20.097Z,5.38
2022-11-28T17:54:47.359Z,5.31
2022-11-28T17:57:14.317Z,5.27
2022-11-28T17:59:41.389Z,5.26
2022-11-28T18:02:11.293Z,5.29
2022-11-28T18:04:38.570Z,5.21
2022-11-28T18:07:05.669Z,5.27
2022-11-28T18:09:32.562Z,5.25
2022-11-28T18:11:59.444Z,5.38
2022-11-28T18:14:26.407Z,5.41
2022-11-28T18:16:53.325Z,5.24
2022-11-28T18:19:20.217Z,5.20
2022-11-28T18:21:47.757Z,5.22
2022-11-28T18:24:14.840Z,5.22
2022-11-28T18:26:42.153Z,5.19
2022-11-28T18:29:09.679Z,5.18
2022-11-28T18:31:37.127Z,5.18
2022-11-28T18:34:07.613Z,5.19
2022-11-28T18:36:36.794Z,5.30
2022-11-28T18:39:09.056Z,5.35
2022-11-28T18:41:36.624Z,5.26
2022-11-28T18:44:05.546Z,5.27
2022-11-28T18:46:33.553Z,5.23
2022-11-28T18:49:00.859Z,5.24
2022-11-28T18:51:30.324Z,5.38
2022-11-28T18:53:58.693Z,5.33
2022-11-28T18:56:26.667Z,5.48
2022-11-28T18:58:54.543Z,5.53
2022-11-28T19:01:25.593Z,5.19
2022-11-28T19:03:56.124Z,5.34
2022-11-28T19:06:23.645Z,5.35
2022-11-28T19:08:56.514Z,5.37
2022-11-28T19:11:28.530Z,5.49
2022-11-28T19:13:57.213Z,5.37
2022-11-28T19:16:27.663Z,5.41
2022-11-28T19:18:56.133Z,5.45
2022-11-28T19:21:29.300Z,5.47
2022-11-28T19:23:57.031Z,5.41
2022-11-28T19:26:26.172Z,5.43
2022-11-28T19:28:53.842Z,5.48
2022-11-28T19:31:24.368Z,5.49
2022-11-28T19:34:00.952Z,5.50
2022-11-28T19:36:37.688Z,5.51
2022-11-28T19:39:04.968Z,5.58
2022-11-28T19:41:33.641Z,5.76
2022-11-28T19:44:01.439Z,5.76
2022-11-28T19:46:35.014Z,5.64
2022-11-28T19:49:04.503Z,5.71
2022-11-28T19:51:31.585Z,5.79
2022-11-28T19:54:03.241Z,5.70
2022-11-28T19:56:32.553Z,5.80
2022-11-28T19:58:59.813Z,5.91
2022-11-28T20:01:28.187Z,5.97
2022-11-28T20:03:55.869Z,5.95
2022-11-28T20:06:26.283Z,5.99
2022-11-28T20:08:55.127Z,5.84
2022-11-28T20:11:24.889Z,5.86
2022-11-28T20:14:04.129Z,5.87
2022-11-28T20:16:32.505Z,5.71
2022-11-28T20:19:01.116Z,5.80
2022-11-28T20:21:28.999Z,5.79
2022-11-28T20:23:59.791Z,5.84
2022-11-28T20:26:27.102Z,5.94
2022-11-28T20:28:56.040Z,5.96
2022-11-28T20:31:30.829Z,5.87
2022-11-28T20:33:58.732Z,5.91
2022-11-28T20:36:27.731Z,5.96
2022-11-28T20:38:56.274Z,5.83
2022-11-28T20:41:25.041Z,5.85
2022-11-28T20:43:52.235Z,5.92
2022-11-28T20:46:22.177Z,5.93
2022-11-28T20:48:50.238Z,6.00
2022-11-28T20:51:19.806Z,5.92
2022-11-28T20:53:46.995Z,5.96
2022-11-28T20:56:16.699Z,6.01
2022-11-28T20:58:44.321Z,6.01
2022-11-28T21:01:19.855Z,6.02
2022-11-28T21:03:47.238Z,6.04
2022-11-28T21:06:14.364Z,6.08
2022-11-28T21:08:41.699Z,6.17
2022-11-28T21:11:17.873Z,6.07
2022-11-28T21:13:58.297Z,6.01
2022-11-28T21:16:28.526Z,6.11
2022-11-28T21:18:57.018Z,6.04
2022-11-28T21:21:26.905Z,6.09
2022-11-28T21:24:02.317Z,5.87
2022-11-28T21:26:30.731Z,5.83
2022-11-28T21:29:02.546Z,6.00
2022-11-28T21:31:33.585Z,5.96
2022-11-28T21:34:00.866Z,6.06
2022-11-28T21:36:29.891Z,6.06
2022-11-28T21:38:59.330Z,6.14
2022-11-28T21:41:31.112Z,5.95
2022-11-28T21:43:59.304Z,5.97
2022-11-28T21:46:27.224Z,5.86
2022-11-28T21:48:54.619Z,5.82
2022-11-28T21:51:24.499Z,5.89
2022-11-28T21:53:51.822Z,5.88
2022-11-28T21:56:20.179Z,5.85
2022-11-28T21:58:48.043Z,5.80
2022-11-28T22:01:15.471Z,5.84
2022-11-28T22:03:43.864Z,5.69
2022-11-28T22:06:26.800Z,5.68
2022-11-28T22:08:54.992Z,5.70
2022-11-28T22:11:22.984Z,5.71
2022-11-28T22:13:50.701Z,5.77
2022-11-28T22:16:19.136Z,5.80
2022-11-28T22:18:47.513Z,5.81
2022-11-28T22:24:05.749Z,5.73
2022-11-28T22:26:32.844Z,5.68
2022-11-28T22:29:01.037Z,5.75
2022-11-28T22:31:28.177Z,5.72
2022-11-28T22:33:56.259Z,5.72
2022-11-28T22:36:23.532Z,5.78
2022-11-28T22:38:55.088Z,5.75
2022-11-28T22:41:28.919Z,5.69
2022-11-28T22:44:00.744Z,5.63
2022-11-28T22:46:29.420Z,5.69
2022-11-28T22:49:00.261Z,5.65
2022-11-28T22:51:28.986Z,5.63
2022-11-28T22:53:57.796Z,5.69
2022-11-28T22:56:27.773Z,5.72
2022-11-28T22:58:54.901Z,5.79
2022-11-28T23:01:25.909Z,5.87
2022-11-28T23:03:53.861Z,5.90
2022-11-28T23:06:24.497Z,5.83
2022-11-28T23:08:55.877Z,5.83
2022-11-28T23:11:28.187Z,5.80
2022-11-28T23:13:55.502Z,5.84
2022-11-28T23:16:28.221Z,5.97
2022-11-28T23:18:56.050Z,6.04
2022-11-28T23:21:24.499Z,6.04
2022-11-28T23:23:51.882Z,6.12
2022-11-28T23:26:22.700Z,6.08
2022-11-28T23:28:50.604Z,6.05
2022-11-28T23:31:23.105Z,6.05
2022-11-28T23:33:51.069Z,5.99
2022-11-28T23:36:23.716Z,5.95
2022-11-28T23:38:52.007Z,6.04
2022-11-28T23:41:19.100Z,5.91
2022-11-28T23:43:46.413Z,5.93
2022-11-28T23:46:15.031Z,5.90
2022-11-28T23:48:43.796Z,5.82
2022-11-28T23:51:15.505Z,5.81
2022-11-28T23:53:43.826Z,5.81
2022-11-28T23:56:16.547Z,5.76
2022-11-28T23:58:43.869Z,5.76
